createdAt,value
2023-03-25T06:01:06.237Z,7.87
2023-03-25T06:03:34.352Z,7.86
2023-03-25T06:06:02.566Z,7.88
2023-03-25T06:08:30.053Z,7.92
2023-03-25T06:11:01.298Z,7.92
2023-03-25T06:13:28.546Z,7.86
2023-03-25T06:15:57.663Z,7.89
2023-03-25T06:18:25.385Z,7.87
2023-03-25T06:20:58.357Z,7.85
2023-03-25T06:23:28.266Z,7.82
2023-03-25T06:25:56.191Z,7.81
2023-03-25T06:28:23.824Z,7.78
2023-03-25T06:30:51.194Z,7.83
2023-03-25T06:33:42.526Z,7.85
2023-03-25T06:36:08.292Z,7.89
2023-03-25T06:38:36.222Z,7.87
2023-03-25T06:41:09.009Z,7.87
2023-03-25T06:43:37.387Z,7.96
2023-03-25T06:46:17.513Z,7.94
2023-03-25T06:49:03.299Z,7.92
2023-03-25T06:51:31.136Z,7.95
2023-03-25T06:53:57.877Z,7.89
2023-03-25T06:56:26.946Z,7.90
2023-03-25T06:58:53.718Z,7.90
2023-03-25T07:01:21.420Z,7.93
2023-03-25T07:03:48.122Z,7.90
2023-03-25T07:06:24.784Z,7.93
2023-03-25T07:08:52.061Z,8.02
2023-03-25T07:11:32.757Z,8.04
2023-03-25T07:14:08.920Z,8.07
2023-03-25T07:16:36.622Z,8.05
2023-03-25T07:19:03.577Z,8.00
2023-03-25T07:21:31.058Z,8.04
2023-03-25T07:28:13.746Z,8.08
2023-03-25T07:30:46.430Z,8.00
2023-03-25T07:33:13.362Z,8.01
2023-03-25T07:35:40.396Z,7.96
2023-03-25T07:38:07.064Z,7.92
2023-03-25T07:40:34.415Z,7.85
2023-03-25T07:43:01.340Z,7.87
2023-03-25T07:45:43.802Z,7.98
2023-03-25T07:48:14.715Z,7.95
2023-03-25T07:50:44.004Z,7.92
2023-03-25T07:53:11.131Z,7.87
2023-03-25T07:55:38.521Z,7.90
2023-03-25T07:58:05.246Z,7.89
2023-03-25T08:00:32.831Z,7.84
2023-03-25T08:02:59.563Z,7.88
2023-03-25T08:05:28.015Z,7.88
2023-03-25T08:07:55.564Z,7.93
2023-03-25T08:10:22.488Z,7.97
2023-03-25T08:12:53.579Z,7.98
2023-03-25T08:15:24.779Z,7.93
2023-03-25T08:17:54.409Z,7.93
2023-03-25T08:20:21.821Z,7.95
2023-03-25T08:22:48.490Z,7.95
2023-03-25T08:25:15.205Z,7.99
2023-03-25T08:27:42.742Z,8.01
2023-03-25T08:30:10.722Z,8.08
2023-03-25T08:32:38.766Z,8.11
2023-03-25T08:35:06.676Z,8.21
2023-03-25T08:37:38.152Z,8.26
2023-03-25T08:40:24.521Z,8.33
2023-03-25T08:42:51.655Z,8.33
2023-03-25T08:45:23.802Z,8.44
2023-03-25T08:47:50.777Z,8.41
2023-03-25T08:50:17.698Z,8.48
2023-03-25T08:52:44.904Z,8.58
2023-03-25T08:55:12.475Z,8.63
2023-03-25T08:57:39.919Z,8.63
2023-03-25T09:00:13.445Z,8.66
2023-03-25T09:02:46.664Z,8.74
2023-03-25T09:05:13.601Z,8.67
2023-03-25T09:07:41.120Z,8.68
2023-03-25T09:10:08.412Z,8.73
2023-03-25T09:12:35.771Z,8.76
2023-03-25T09:15:02.477Z,8.77
2023-03-25T09:17:29.570Z,8.86
2023-03-25T09:19:57.793Z,8.93
2023-03-25T09:22:26.159Z,9.00
2023-03-25T09:24:52.857Z,9.06
2023-03-25T09:31:44.002Z,9.46
2023-03-25T09:34:11.560Z,9.75
2023-03-25T09:36:38.931Z,10.05
2023-03-25T09:39:06.031Z,10.16
2023-03-25T09:41:44.175Z,10.11
2023-03-25T09:44:13.736Z,10.05
2023-03-25T09:46:41.429Z,9.98
2023-03-25T09:49:23.925Z,9.92
2023-03-25T09:51:53.300Z,9.79
2023-03-25T09:54:28.585Z,9.74
2023-03-25T09:56:59.862Z,9.75
2023-03-25T09:59:36.113Z,9.83
2023-03-25T10:02:34.816Z,9.90
2023-03-25T10:05:13.991Z,9.92
2023-03-25T10:08:13.773Z,9.83
2023-03-25T10:10:46.351Z,9.76
2023-03-25T10:13:50.500Z,9.78
2023-03-25T10:16:46.767Z,9.83
2023-03-25T10:19:33.118Z,9.77
2023-03-25T10:22:03.470Z,9.76
2023-03-25T10:24:41.679Z,9.81
2023-03-25T10:27:31.940Z,9.76
2023-03-25T10:30:18.543Z,9.80
2023-03-25T10:32:53.911Z,9.90
2023-03-25T10:35:47.432Z,9.91
2023-03-25T10:38:24.514Z,9.96
2023-03-25T10:40:58.909Z,10.02
2023-03-25T10:43:36.788Z,10.00
2023-03-25T10:46:26.493Z,9.85
2023-03-25T10:48:53.234Z,9.85
2023-03-25T10:51:26.166Z,9.97
2023-03-25T10:53:53.375Z,10.04
2023-03-25T10:56:29.761Z,10.04
2023-03-25T10:59:00.646Z,10.03
2023-03-25T11:01:39.071Z,10.11
2023-03-25T11:04:08.855Z,10.18
2023-03-25T11:06:46.324Z,10.23
2023-03-25T11:09:30.217Z,10.36
2023-03-25T11:12:01.426Z,10.58
2023-03-25T11:14:29.622Z,10.68
2023-03-25T11:17:09.604Z,10.71
2023-03-25T11:19:40.737Z,10.65
2023-03-25T11:22:18.972Z,10.56
2023-03-25T11:24:54.450Z,10.45
2023-03-25T11:27:25.414Z,10.46
2023-03-25T11:30:05.259Z,10.49
2023-03-25T11:32:40.017Z,10.56
2023-03-25T11:35:28.788Z,10.60
2023-03-25T11:38:01.883Z,10.64
2023-03-25T11:40:30.627Z,10.72
2023-03-25T11:43:00.292Z,10.81
2023-03-25T11:45:39.274Z,10.80
2023-03-25T11:48:31.145Z,10.83
2023-03-25T11:51:01.794Z,10.94
2023-03-25T11:53:32.870Z,10.96
2023-03-25T11:56:04.557Z,10.91
2023-03-25T11:58:37.525Z,10.88
2023-03-25T12:01:07.414Z,11.00
2023-03-25T12:03:35.787Z,11.05
2023-03-25T12:06:16.427Z,11.08
2023-03-25T12:08:59.640Z,11.10
2023-03-25T12:11:36.273Z,11.17
2023-03-25T12:14:36.887Z,11.05
2023-03-25T12:17:31.945Z,10.95
2023-03-25T12:20:16.660Z,10.81
2023-03-25T12:22:55.573Z,10.73
2023-03-25T12:25:44.439Z,10.81
2023-03-25T12:28:49.621Z,10.92
2023-03-25T12:31:43.830Z,11.00
2023-03-25T12:34:57.418Z,10.99
2023-03-25T12:38:02.234Z,11.00
2023-03-25T12:40:41.445Z,10.92
2023-03-25T12:43:18.064Z,10.82
2023-03-25T12:45:54.424Z,10.71
2023-03-25T12:48:37.653Z,10.58
2023-03-25T12:51:13.069Z,10.50
2023-03-25T12:54:27.712Z,10.38
2023-03-25T12:57:16.661Z,10.39
2023-03-25T13:00:17.082Z,10.23
2023-03-25T13:03:12.929Z,10.02
2023-03-25T13:05:59.349Z,9.88
2023-03-25T13:08:48.716Z,9.73
2023-03-25T13:11:21.320Z,9.59
2023-03-25T13:13:52.997Z,9.51
2023-03-25T13:16:24.931Z,9.47
2023-03-25T13:19:04.122Z,9.43
2023-03-25T13:21:39.433Z,9.38
2023-03-25T13:24:12.562Z,9.38
2023-03-25T13:26:44.949Z,9.39
2023-03-25T13:29:21.983Z,9.36
2023-03-25T13:31:50.123Z,9.33
2023-03-25T13:34:27.992Z,9.38
2023-03-25T13:37:18.378Z,9.37
2023-03-25T13:40:12.971Z,9.38
2023-03-25T13:42:49.658Z,9.41
2023-03-25T13:45:24.866Z,9.41
2023-03-25T13:48:08.420Z,9.41
2023-03-25T13:50:37.138Z,9.44
2023-03-25T13:53:15.307Z,9.59
2023-03-25T13:55:48.240Z,9.77
2023-03-25T13:58:24.473Z,9.96
2023-03-25T14:01:12.111Z,10.07
2023-03-25T14:04:11.574Z,10.13
2023-03-25T14:06:49.848Z,10.14
2023-03-25T14:10:01.820Z,10.03
2023-03-25T14:12:33.223Z,9.93
2023-03-25T14:15:14.107Z,9.87
2023-03-25T14:17:42.498Z,9.86
2023-03-25T14:20:12.856Z,9.87
2023-03-25T14:22:43.858Z,9.88
2023-03-25T14:25:27.814Z,9.85
2023-03-25T14:27:54.609Z,9.78
2023-03-25T14:30:28.990Z,9.75
2023-03-25T14:32:56.545Z,9.80
2023-03-25T14:35:35.475Z,9.73
2023-03-25T14:38:07.996Z,9.70
2023-03-25T14:40:59.012Z,9.65
2023-03-25T14:43:46.225Z,9.54
2023-03-25T14:46:14.785Z,9.48
2023-03-25T14:48:48.976Z,9.38
2023-03-25T14:51:23.402Z,9.27
2023-03-25T14:54:17.370Z,9.20
2023-03-25T14:57:16.630Z,9.19
2023-03-25T14:59:49.004Z,9.20
2023-03-25T15:02:21.622Z,9.21
2023-03-25T15:05:04.817Z,9.21
2023-03-25T15:08:02.414Z,9.23
2023-03-25T15:10:58.441Z,9.20
2023-03-25T15:13:29.571Z,9.16
2023-03-25T15:16:04.462Z,9.00
2023-03-25T15:18:31.988Z,8.98
2023-03-25T15:21:07.824Z,9.03
2023-03-25T15:24:12.497Z,9.01
2023-03-25T15:26:42.180Z,8.97
2023-03-25T15:29:43.294Z,9.02
2023-03-25T15:32:47.550Z,9.05
2023-03-25T15:35:33.949Z,9.08
2023-03-25T15:38:12.527Z,9.10
2023-03-25T15:41:01.740Z,9.11
2023-03-25T15:43:31.470Z,9.13
2023-03-25T15:47:00.893Z,9.13
2023-03-25T15:49:37.014Z,9.08
2023-03-25T15:52:20.855Z,9.08
2023-03-25T15:55:25.655Z,9.14
2023-03-25T15:58:13.298Z,9.10
2023-03-25T16:00:48.910Z,9.17
2023-03-25T16:03:29.731Z,9.17
2023-03-25T16:06:03.671Z,9.21
2023-03-25T16:08:33.410Z,9.31
2023-03-25T16:11:31.545Z,9.26
2023-03-25T16:14:04.547Z,9.20
2023-03-25T16:16:35.830Z,9.15
2023-03-25T16:19:08.649Z,9.09
2023-03-25T16:21:35.535Z,9.00
2023-03-25T16:24:08.174Z,8.99
2023-03-25T16:26:40.147Z,8.98
2023-03-25T16:29:13.688Z,8.88
2023-03-25T16:31:42.830Z,8.91
2023-03-25T16:34:13.802Z,8.94
2023-03-25T16:36:43.702Z,8.92
2023-03-25T16:39:15.962Z,8.89
2023-03-25T16:41:45.050Z,8.89
2023-03-25T16:44:16.310Z,8.89
2023-03-25T16:46:46.254Z,8.84
2023-03-25T16:49:16.891Z,8.82
2023-03-25T16:51:45.453Z,8.83
2023-03-25T16:54:38.270Z,8.83
2023-03-25T16:57:08.615Z,8.78
2023-03-25T16:59:38.467Z,8.67
2023-03-25T17:02:27.199Z,8.54
2023-03-25T17:04:56.639Z,8.48
2023-03-25T17:07:28.808Z,8.41
2023-03-25T17:09:57.232Z,8.38
2023-03-25T17:12:26.065Z,8.33
2023-03-25T17:15:01.840Z,8.35
2023-03-25T17:17:34.916Z,8.33
2023-03-25T17:20:06.859Z,8.33
2023-03-25T17:22:39.806Z,8.33
2023-03-25T17:25:37.097Z,8.32
2023-03-25T17:28:07.808Z,8.31
2023-03-25T17:30:40.600Z,8.30
2023-03-25T17:33:20.306Z,8.23
2023-03-25T17:35:56.738Z,8.23
2023-03-25T17:38:38.718Z,8.19
2023-03-25T17:41:08.103Z,8.12
2023-03-25T17:43:44.289Z,8.10
2023-03-25T17:46:15.314Z,8.12
2023-03-25T17:48:42.199Z,8.17
2023-03-25T17:51:12.405Z,8.17
2023-03-25T17:53:39.992Z,8.14
2023-03-25T17:56:06.914Z,8.09
2023-03-25T17:58:34.801Z,8.04
2023-03-25T18:01:01.466Z,7.99
2023-03-25T18:03:32.027Z,7.96
2023-03-25T18:06:01.237Z,7.95
2023-03-25T18:08:28.677Z,7.93
2023-03-25T18:10:56.560Z,7.88
2023-03-25T18:13:27.169Z,7.90
2023-03-25T18:15:55.025Z,7.90
2023-03-25T18:18:25.337Z,7.89
2023-03-25T18:20:54.513Z,7.84
2023-03-25T18:23:22.136Z,7.80
2023-03-25T18:25:48.739Z,7.76
2023-03-25T18:28:16.408Z,7.73
2023-03-25T18:30:51.970Z,7.71
2023-03-25T18:33:19.890Z,7.64
2023-03-25T18:35:47.433Z,7.64
2023-03-25T18:38:24.306Z,7.65
2023-03-25T18:40:53.476Z,7.67
2023-03-25T18:43:20.481Z,7.65
2023-03-25T18:45:48.879Z,7.66
2023-03-25T18:48:22.793Z,7.58
2023-03-25T18:50:55.228Z,7.56
2023-03-25T18:53:29.952Z,7.53
2023-03-25T18:55:59.963Z,7.47
2023-03-25T18:58:31.449Z,7.41
2023-03-25T19:01:00.232Z,7.42
2023-03-25T19:03:31.919Z,7.35
2023-03-25T19:06:00.696Z,7.30
2023-03-25T19:08:28.705Z,7.29
2023-03-25T19:11:04.873Z,7.29
2023-03-25T19:13:39.937Z,7.23
2023-03-25T19:16:07.955Z,7.23
2023-03-25T19:18:35.022Z,7.21
2023-03-25T19:21:01.846Z,7.16
2023-03-25T19:23:30.190Z,7.14
2023-03-25T19:25:59.605Z,7.12
2023-03-25T19:28:27.930Z,7.07
2023-03-25T19:31:00.397Z,7.03
2023-03-25T19:33:31.814Z,7.09
2023-03-25T19:36:01.245Z,7.13
2023-03-25T19:38:30.045Z,7.12
2023-03-25T19:41:09.050Z,7.09
2023-03-25T19:43:36.456Z,7.10
2023-03-25T19:46:05.369Z,7.09
2023-03-25T19:48:33.357Z,6.99
2023-03-25T19:51:00.029Z,7.00
2023-03-25T19:53:28.180Z,7.02
2023-03-25T19:55:55.792Z,6.96
2023-03-25T19:58:23.661Z,6.97
2023-03-25T20:00:51.458Z,6.97
2023-03-25T20:03:22.888Z,6.94
2023-03-25T20:05:56.317Z,6.95
2023-03-25T20:08:23.718Z,6.97
2023-03-25T20:10:50.500Z,7.00
2023-03-25T20:13:17.924Z,6.99
2023-03-25T20:15:44.640Z,6.98
2023-03-25T20:18:12.032Z,7.00
2023-03-25T20:20:40.351Z,7.01
2023-03-25T20:23:08.659Z,7.03
2023-03-25T20:25:35.287Z,7.03
2023-03-25T20:28:02.627Z,7.01
2023-03-25T20:30:29.420Z,7.03
2023-03-25T20:32:58.378Z,7.03
2023-03-25T20:35:25.002Z,7.06
2023-03-25T20:37:52.485Z,7.03
2023-03-25T20:40:23.402Z,7.05
2023-03-25T20:42:55.252Z,7.09
2023-03-25T20:45:21.868Z,7.09
2023-03-25T20:47:49.110Z,7.10
2023-03-25T20:50:16.562Z,7.10
2023-03-25T20:52:43.785Z,7.03
2023-03-25T20:55:11.683Z,7.05
2023-03-25T20:57:39.732Z,7.08
2023-03-25T21:00:07.847Z,7.02
2023-03-25T21:02:34.608Z,7.03
2023-03-25T21:05:03.438Z,7.09
2023-03-25T21:07:32.393Z,7.08
2023-03-25T21:09:59.929Z,7.12
2023-03-25T21:12:40.728Z,7.10
2023-03-25T21:15:10.571Z,7.09
2023-03-25T21:17:37.426Z,7.11
2023-03-25T21:20:08.570Z,7.09
2023-03-25T21:22:42.379Z,7.05
2023-03-25T21:25:10.047Z,7.06
2023-03-25T21:27:39.090Z,7.05
